^^
Datos históricos de la estación: Murcia-Puente Tocinos
Diario Informe para Marzo 17, 2019 Unidades:  Métrico    Inglés   Ambas
Diario Semanal Mensual Anual Configurable
  Máximo: Mínimo: Media:
Temperatura: 27.4 °C 9.7 °C 19.1 °C
Punto de rocio: 7.6 °C -1.8 °C 1.7 °C
Humedad: 70% 15% 35%
Velocidad viento: 20.9km/h 0.0km/h 8.6km/h
Racha viento: 35.4km/h - -
Viento- - SW
Presión: 1017.3 hPa 1010.9 hPa -
Precipitación: 0.0 mm    
Historical Graphs
 
 
Tabla de datos para Marzo 17, 2019
Hora Temperatura Punto de rocio Presión Viento Velocidad viento Racha viento Humedad Intensidad lluvia(por hora) Nubes
00:00 13.8 °C 6.9 °C 1017.3 hPa NE 3.2 km/h 4.8 km/h 63% 0.0 mm CLR
00:05 13.8 °C 7.1 °C 1017.1 hPa NE 2.9 km/h   64% 0.0 mm CLR
00:10 13.7 °C 6.6 °C 1017.1 hPa Calm     62% 0.0 mm CLR
00:15 13.6 °C 6.2 °C 1017.1 hPa Calm     61% 0.0 mm CLR
00:20 13.6 °C 6.2 °C 1017.0 hPa Calm     61% 0.0 mm CLR
00:25 13.6 °C 6.2 °C 1017.0 hPa Calm   5.6 km/h 61% 0.0 mm CLR
00:30 13.5 °C 6.1 °C 1017.0 hPa NE 2.3 km/h 3.9 km/h 61% 0.0 mm CLR
00:35 13.5 °C 7.3 °C 1016.9 hPa NE 2.3 km/h 5.6 km/h 66% 0.0 mm CLR
00:40 13.4 °C 7.4 °C 1016.9 hPa NE 2.9 km/h   67% 0.0 mm CLR
00:45 13.3 °C 7.3 °C 1016.9 hPa NE 2.9 km/h 3.7 km/h 67% 0.0 mm CLR
00:50 13.1 °C 7.3 °C 1016.8 hPa Calm   3.7 km/h 68% 0.0 mm CLR
00:55 13.0 °C 7.2 °C 1016.8 hPa Calm   3.7 km/h 68% 0.0 mm CLR
00:59 12.9 °C 7.3 °C 1016.8 hPa NE 2.3 km/h   69% 0.0 mm CLR
01:04 12.9 °C 7.3 °C 1016.7 hPa NE 2.3 km/h 3.7 km/h 69% 0.0 mm CLR
01:09 12.9 °C 7.6 °C 1016.7 hPa Calm     70% 0.0 mm CLR
01:14 12.9 °C 7.3 °C 1016.7 hPa Calm     69% 0.0 mm CLR
01:19 12.8 °C 7.3 °C 1016.6 hPa Calm   2.9 km/h 69% 0.0 mm CLR
01:24 12.7 °C 6.9 °C 1016.6 hPa Calm   3.7 km/h 68% 0.0 mm CLR
01:29 12.7 °C 6.3 °C 1016.6 hPa East 2.9 km/h 5.6 km/h 65% 0.0 mm CLR
01:34 12.7 °C 5.8 °C 1016.4 hPa ESE 2.9 km/h 7.4 km/h 63% 0.0 mm CLR
01:39 12.6 °C 5.3 °C 1016.4 hPa SSE 3.9 km/h 7.6 km/h 61% 0.0 mm CLR
01:44 12.4 °C 4.3 °C 1016.4 hPa SSE 3.9 km/h 9.3 km/h 58% 0.0 mm CLR
01:49 12.4 °C 3.8 °C 1016.1 hPa SSE 5.8 km/h 7.4 km/h 56% 0.0 mm CLR
01:54 12.4 °C 3.6 °C 1016.1 hPa SSW 5.8 km/h 8.4 km/h 55% 0.0 mm CLR
01:59 12.5 °C 3.4 °C 1016.1 hPa SSW 5.8 km/h 7.4 km/h 54% 0.0 mm CLR
02:04 12.7 °C 3.6 °C 1016.0 hPa SW 5.8 km/h 9.3 km/h 54% 0.0 mm CLR
02:09 12.7 °C 3.3 °C 1016.0 hPa WSW 6.4 km/h 9.3 km/h 53% 0.0 mm CLR
02:14 12.8 °C 3.4 °C 1016.0 hPa WSW 6.4 km/h 7.4 km/h 53% 0.0 mm CLR
02:19 12.8 °C 2.9 °C 1015.9 hPa West 5.0 km/h 7.4 km/h 51% 0.0 mm CLR
02:24 12.7 °C 2.6 °C 1015.9 hPa WSW 5.0 km/h 13.0 km/h 50% 0.0 mm CLR
02:29 12.7 °C 2.6 °C 1015.9 hPa SW 6.9 km/h 9.3 km/h 50% 0.0 mm CLR
02:34 12.7 °C 2.6 °C 1015.8 hPa SW 6.9 km/h 7.4 km/h 50% 0.0 mm CLR
02:39 12.7 °C 2.8 °C 1015.8 hPa SW 6.4 km/h 11.1 km/h 51% 0.0 mm CLR
02:44 12.7 °C 2.8 °C 1015.8 hPa WSW 6.4 km/h 7.4 km/h 51% 0.0 mm CLR
02:49 12.7 °C 3.1 °C 1015.7 hPa SW 5.0 km/h 7.4 km/h 52% 0.0 mm CLR
02:54 12.7 °C 3.1 °C 1015.7 hPa SW 5.0 km/h 4.7 km/h 52% 0.0 mm CLR
02:59 12.6 °C 3.0 °C 1015.7 hPa SW 3.9 km/h 3.7 km/h 52% 0.0 mm CLR
03:04 12.4 °C 2.8 °C 1015.5 hPa SW 3.9 km/h 5.6 km/h 52% 0.0 mm CLR
03:09 12.2 °C 2.9 °C 1015.5 hPa SE 2.9 km/h 5.8 km/h 53% 0.0 mm CLR
03:14 11.9 °C 2.6 °C 1015.5 hPa SE 2.9 km/h 7.4 km/h 53% 0.0 mm CLR
03:19 11.7 °C 2.7 °C 1015.2 hPa SE 5.0 km/h 9.3 km/h 54% 0.0 mm CLR
03:24 11.4 °C 2.7 °C 1015.2 hPa SE 5.0 km/h 9.3 km/h 55% 0.0 mm CLR
03:29 11.2 °C 2.5 °C 1015.2 hPa SE 6.4 km/h 9.3 km/h 55% 0.0 mm CLR
03:34 11.1 °C 2.4 °C 1015.2 hPa SSE 6.4 km/h 7.4 km/h 55% 0.0 mm CLR
03:39 11.1 °C 2.4 °C 1015.2 hPa South 5.0 km/h 8.4 km/h 55% 0.0 mm CLR
03:44 11.1 °C 2.4 °C 1015.2 hPa South 5.0 km/h 7.4 km/h 55% 0.0 mm CLR
03:49 11.2 °C 2.5 °C 1015.1 hPa South 5.8 km/h 7.4 km/h 55% 0.0 mm CLR
03:54 11.3 °C 2.6 °C 1015.1 hPa South 5.8 km/h 7.4 km/h 55% 0.0 mm CLR
03:59 11.3 °C 2.6 °C 1015.1 hPa South 3.9 km/h 6.4 km/h 55% 0.0 mm CLR
04:04 11.3 °C 2.3 °C 1014.9 hPa South 3.9 km/h 8.4 km/h 54% 0.0 mm CLR
04:09 11.2 °C 2.2 °C 1014.9 hPa SSE 5.8 km/h 9.3 km/h 54% 0.0 mm CLR
04:14 11.1 °C 2.1 °C 1014.9 hPa SSE 5.8 km/h 5.6 km/h 54% 0.0 mm CLR
04:19 10.9 °C 1.9 °C 1014.8 hPa SSE 5.0 km/h 7.4 km/h 54% 0.0 mm CLR
04:24 11.1 °C 2.1 °C 1014.8 hPa SSE 5.0 km/h 3.7 km/h 54% 0.0 mm CLR
04:29 11.2 °C 2.5 °C 1014.8 hPa SW 3.9 km/h 5.6 km/h 55% 0.0 mm CLR
04:34 11.3 °C 2.8 °C 1014.7 hPa SW 3.9 km/h 5.6 km/h 56% 0.0 mm CLR
04:39 11.4 °C 2.7 °C 1014.7 hPa SW 4.7 km/h 7.4 km/h 55% 0.0 mm CLR
04:44 11.6 °C 2.6 °C 1014.7 hPa SW 4.7 km/h 7.4 km/h 54% 0.0 mm CLR
04:49 11.6 °C 2.3 °C 1014.6 hPa SSE 5.8 km/h 9.3 km/h 53% 0.0 mm CLR
04:54 11.2 °C 1.9 °C 1014.6 hPa South 5.8 km/h 14.8 km/h 53% 0.0 mm CLR
04:59 10.9 °C 1.9 °C 1014.6 hPa South 8.4 km/h 10.3 km/h 54% 0.0 mm CLR
05:04 10.8 °C 1.8 °C 1014.6 hPa South 8.4 km/h 13.0 km/h 54% 0.0 mm CLR
05:09 10.7 °C 1.8 °C 1014.6 hPa South 7.6 km/h 7.4 km/h 54% 0.0 mm CLR
05:14 10.7 °C 1.8 °C 1014.6 hPa SSW 7.6 km/h 7.4 km/h 54% 0.0 mm CLR
05:19 10.8 °C 1.3 °C 1014.6 hPa SSW 6.4 km/h 13.0 km/h 52% 0.0 mm CLR
05:24 10.9 °C 1.2 °C 1014.6 hPa SW 6.4 km/h 11.1 km/h 51% 0.0 mm CLR
05:29 11.1 °C 0.8 °C 1014.6 hPa SSW 9.5 km/h 14.8 km/h 49% 0.0 mm CLR
05:34 11.1 °C 0.8 °C 1014.7 hPa SW 9.5 km/h 11.1 km/h 49% 0.0 mm CLR
05:39 11.0 °C 0.7 °C 1014.7 hPa SSW 8.7 km/h 14.8 km/h 49% 0.0 mm CLR
05:44 11.0 °C 0.7 °C 1014.7 hPa SSW 8.7 km/h 11.1 km/h 49% 0.0 mm CLR
05:49 10.9 °C 0.6 °C 1014.6 hPa South 8.7 km/h 7.4 km/h 49% 0.0 mm CLR
05:54 10.9 °C 0.6 °C 1014.6 hPa SSW 8.7 km/h 11.1 km/h 49% 0.0 mm CLR
05:59 11.0 °C 0.7 °C 1014.6 hPa SW 6.9 km/h 7.4 km/h 49% 0.0 mm CLR
06:04 11.1 °C 0.8 °C 1014.6 hPa West 6.9 km/h 9.3 km/h 49% 0.0 mm CLR
06:09 11.0 °C 0.7 °C 1014.6 hPa WNW 5.8 km/h 9.3 km/h 49% 0.0 mm CLR
06:14 10.8 °C 0.8 °C 1014.6 hPa SSW 5.8 km/h 7.4 km/h 50% 0.0 mm CLR
06:19 10.7 °C 0.7 °C 1014.6 hPa WSW 4.7 km/h 7.4 km/h 50% 0.0 mm CLR
06:24 10.6 °C 0.9 °C 1014.6 hPa WSW 4.7 km/h 3.9 km/h 51% 0.0 mm CLR
06:29 10.6 °C 0.9 °C 1014.6 hPa WSW 3.2 km/h 5.6 km/h 51% 0.0 mm CLR
06:34 10.6 °C 1.2 °C 1014.6 hPa SSE 3.2 km/h 5.6 km/h 52% 0.0 mm CLR
06:39 10.5 °C 1.1 °C 1014.6 hPa SSE 3.9 km/h 7.4 km/h 52% 0.0 mm CLR
06:44 10.5 °C 1.1 °C 1014.6 hPa SSE 3.9 km/h 3.9 km/h 52% 0.0 mm CLR
06:49 10.4 °C 0.9 °C 1014.8 hPa SSE 3.2 km/h 5.6 km/h 52% 0.0 mm CLR
06:54 10.4 °C 0.9 °C 1014.8 hPa SSE 3.2 km/h 7.4 km/h 52% 0.0 mm CLR
06:59 10.3 °C 0.9 °C 1014.8 hPa SSE 5.0 km/h 5.6 km/h 52% 0.0 mm CLR
07:04 10.3 °C 1.1 °C 1014.8 hPa SSE 5.0 km/h 5.6 km/h 53% 0.0 mm CLR
07:09 10.2 °C 1.3 °C 1014.8 hPa SSE 3.9 km/h 3.7 km/h 54% 0.0 mm CLR
07:14 10.2 °C 1.1 °C 1014.8 hPa SSE 3.9 km/h 7.4 km/h 53% 0.0 mm CLR
07:19 10.0 °C 1.1 °C 1014.7 hPa SSE 3.9 km/h 7.4 km/h 54% 0.0 mm CLR
07:24 9.8 °C 0.9 °C 1014.7 hPa SE 3.9 km/h 7.4 km/h 54% 0.0 mm CLR
07:29 9.7 °C 1.1 °C 1014.7 hPa SSE 5.0 km/h 7.4 km/h 55% 0.0 mm CLR
07:35 9.8 °C 0.9 °C 1014.9 hPa SSE 5.0 km/h 5.6 km/h 54% 0.0 mm CLR
07:39 9.8 °C 0.9 °C 1014.9 hPa SSE 3.9 km/h 3.7 km/h 54% 0.0 mm CLR
07:44 10.0 °C 1.1 °C 1014.9 hPa SSE 3.9 km/h   54% 0.0 mm CLR
07:49 10.2 °C 1.6 °C 1014.9 hPa Calm     55% 0.0 mm CLR
07:54 10.3 °C 1.7 °C 1014.9 hPa Calm   3.9 km/h 55% 0.0 mm CLR
07:59 10.4 °C 1.2 °C 1014.9 hPa SSE 2.3 km/h 7.4 km/h 53% 0.0 mm CLR
08:04 10.6 °C 1.2 °C 1015.1 hPa South 2.3 km/h 5.6 km/h 52% 0.0 mm CLR
08:09 10.8 °C 1.1 °C 1015.1 hPa SSW 3.9 km/h 5.6 km/h 51% 0.0 mm CLR
08:14 11.2 °C 1.2 °C 1015.1 hPa SSE 3.9 km/h 9.3 km/h 50% 0.0 mm CLR
08:19 11.5 °C 0.8 °C 1015.2 hPa South 5.8 km/h 9.3 km/h 48% 0.0 mm CLR
08:24 11.8 °C 0.8 °C 1015.2 hPa South 5.8 km/h 9.3 km/h 47% 0.0 mm CLR
08:29 12.1 °C 0.8 °C 1015.2 hPa SSE 6.4 km/h 10.3 km/h 46% 0.0 mm CLR
08:34 12.3 °C 0.7 °C 1015.4 hPa SSE 6.4 km/h 11.1 km/h 45% 0.0 mm CLR
08:39 12.6 °C 1.3 °C 1015.4 hPa SSE 7.6 km/h 11.9 km/h 46% 0.0 mm CLR
08:44 12.7 °C 1.4 °C 1015.4 hPa SSE 7.6 km/h 7.4 km/h 46% 0.0 mm CLR
08:49 12.9 °C 1.2 °C 1015.4 hPa South 6.4 km/h 7.4 km/h 45% 0.0 mm CLR
08:54 13.3 °C 1.6 °C 1015.4 hPa South 6.4 km/h 7.4 km/h 45% 0.0 mm CLR
08:59 13.6 °C 1.9 °C 1015.4 hPa SSE 4.7 km/h 9.3 km/h 45% 0.0 mm CLR
09:04 13.7 °C 1.7 °C 1015.5 hPa SSE 4.7 km/h 7.4 km/h 44% 0.0 mm CLR
09:09 13.9 °C 1.8 °C 1015.5 hPa SSE 6.4 km/h 11.1 km/h 44% 0.0 mm CLR
09:14 14.1 °C 2.0 °C 1015.5 hPa SSE 6.4 km/h 12.2 km/h 44% 0.0 mm CLR
09:19 14.2 °C 2.1 °C 1015.4 hPa South 8.7 km/h 13.0 km/h 44% 0.0 mm CLR
09:24 14.4 °C 1.9 °C 1015.4 hPa South 8.7 km/h 13.0 km/h 43% 0.0 mm CLR
09:29 14.7 °C 2.6 °C 1015.4 hPa SSW 10.0 km/h 11.1 km/h 44% 0.0 mm CLR
09:34 14.9 °C 2.4 °C 1015.4 hPa SE 10.0 km/h 11.1 km/h 43% 0.0 mm CLR
09:39 15.4 °C 2.6 °C 1015.4 hPa SSE 6.9 km/h 9.3 km/h 42% 0.0 mm CLR
09:44 15.8 °C 2.2 °C 1015.4 hPa South 6.9 km/h 9.3 km/h 40% 0.0 mm CLR
09:49 16.2 °C 2.6 °C 1015.5 hPa SSW 6.4 km/h 7.6 km/h 40% 0.0 mm CLR
09:54 16.4 °C 2.4 °C 1015.5 hPa South 6.4 km/h 11.1 km/h 39% 0.0 mm CLR
09:59 16.8 °C 2.4 °C 1015.5 hPa SSW 7.6 km/h 7.4 km/h 38% 0.0 mm CLR
10:04 17.3 °C 2.4 °C 1015.4 hPa SSE 7.6 km/h 9.3 km/h 37% 0.0 mm CLR
10:09 17.7 °C 2.1 °C 1015.4 hPa SSE 5.8 km/h 9.3 km/h 35% 0.0 mm CLR
10:14 18.1 °C 2.4 °C 1015.4 hPa South 5.8 km/h 10.0 km/h 35% 0.0 mm CLR
10:19 18.4 °C 2.2 °C 1015.5 hPa SSW 5.8 km/h 7.4 km/h 34% 0.0 mm CLR
10:24 18.6 °C 2.4 °C 1015.5 hPa SSW 5.8 km/h 10.3 km/h 34% 0.0 mm CLR
10:29 18.8 °C 2.6 °C 1015.5 hPa SSW 7.6 km/h 9.3 km/h 34% 0.0 mm CLR
10:34 19.1 °C 2.4 °C 1015.4 hPa South 7.6 km/h 11.1 km/h 33% 0.0 mm CLR
10:39 19.4 °C 2.7 °C 1015.4 hPa SE 6.9 km/h 11.1 km/h 33% 0.0 mm CLR
10:44 19.8 °C 2.6 °C 1015.4 hPa South 6.9 km/h 11.1 km/h 32% 0.0 mm CLR
10:49 20.2 °C 2.5 °C 1015.3 hPa SSW 6.9 km/h 13.0 km/h 31% 0.0 mm CLR
10:54 20.4 °C 2.7 °C 1015.3 hPa SW 6.9 km/h 9.3 km/h 31% 0.0 mm CLR
10:59 20.6 °C 2.4 °C 1015.3 hPa SSE 7.6 km/h 11.1 km/h 30% 0.0 mm CLR
11:04 21.1 °C 2.3 °C 1015.1 hPa SSW 7.6 km/h 13.0 km/h 29% 0.0 mm CLR
11:09 21.3 °C 2.6 °C 1015.1 hPa SSW 8.4 km/h 11.1 km/h 29% 0.0 mm CLR
11:14 21.6 °C 2.8 °C 1015.1 hPa South 8.4 km/h 13.0 km/h 29% 0.0 mm CLR
11:19 21.9 °C 2.6 °C 1015.0 hPa SE 6.9 km/h 14.8 km/h 28% 0.0 mm CLR
11:24 22.2 °C 2.8 °C 1015.0 hPa SW 6.9 km/h 13.0 km/h 28% 0.0 mm CLR
11:29 22.5 °C 2.6 °C 1015.0 hPa South 8.4 km/h 11.1 km/h 27% 0.0 mm CLR
11:34 22.6 °C 2.7 °C 1014.9 hPa SW 8.4 km/h 13.0 km/h 27% 0.0 mm CLR
11:39 22.9 °C 2.9 °C 1014.9 hPa SSW 8.4 km/h 14.8 km/h 27% 0.0 mm CLR
11:44 23.1 °C 3.1 °C 1014.9 hPa WNW 8.4 km/h 24.1 km/h 27% 0.0 mm CLR
11:49 23.3 °C 3.2 °C 1014.8 hPa WSW 11.1 km/h 13.0 km/h 27% 0.0 mm CLR
11:54 23.4 °C 3.3 °C 1014.8 hPa WSW 11.1 km/h 11.1 km/h 27% 0.0 mm CLR
11:59 23.6 °C 2.9 °C 1014.8 hPa South 8.4 km/h 18.0 km/h 26% 0.0 mm CLR
12:04 24.1 °C 3.4 °C 1014.6 hPa NNW 8.4 km/h 25.9 km/h 26% 0.0 mm CLR
12:09 24.4 °C 3.7 °C 1014.6 hPa WSW 13.0 km/h 18.5 km/h 26% 0.0 mm CLR
12:14 24.7 °C 3.3 °C 1014.6 hPa WNW 13.0 km/h 27.8 km/h 25% 0.0 mm CLR
12:20 24.7 °C 3.3 °C 1014.4 hPa WNW 15.6 km/h 25.9 km/h 25% 0.0 mm CLR
12:25 24.9 °C 3.5 °C 1014.4 hPa WNW 14.5 km/h 24.1 km/h 25% 0.0 mm CLR
12:29 25.3 °C 3.3 °C 1014.4 hPa NW 16.1 km/h 22.2 km/h 24% 0.0 mm CLR
12:35 25.3 °C 3.3 °C 1014.2 hPa WNW 16.1 km/h 32.2 km/h 24% 0.0 mm CLR
12:39 25.5 °C 2.8 °C 1014.2 hPa WNW 16.4 km/h 21.7 km/h 23% 0.0 mm CLR
12:44 25.7 °C 2.4 °C 1014.2 hPa WNW 16.4 km/h 27.8 km/h 22% 0.0 mm CLR
12:49 25.5 °C 2.2 °C 1013.9 hPa WNW 16.1 km/h 24.1 km/h 22% 0.0 mm CLR
12:55 25.7 °C 2.3 °C 1013.9 hPa NW 16.1 km/h 27.4 km/h 22% 0.0 mm CLR
12:59 25.7 °C 2.4 °C 1013.9 hPa West 15.6 km/h 16.1 km/h 22% 0.0 mm CLR
13:05 25.8 °C 2.4 °C 1013.7 hPa West 14.5 km/h 25.7 km/h 22% 0.0 mm CLR
13:09 25.8 °C 2.4 °C 1013.7 hPa NW 12.2 km/h 14.8 km/h 22% 0.0 mm CLR
13:14 25.8 °C 2.4 °C 1013.7 hPa NNW 12.2 km/h 13.0 km/h 22% 0.0 mm CLR
13:19 26.1 °C 2.7 °C 1013.5 hPa West 10.3 km/h 27.8 km/h 22% 0.0 mm CLR
13:25 25.8 °C 1.8 °C 1013.5 hPa WNW 11.3 km/h 29.0 km/h 21% 0.0 mm CLR
13:29 25.9 °C 1.9 °C 1013.5 hPa WNW 15.6 km/h 22.2 km/h 21% 0.0 mm CLR
13:35 26.2 °C 2.1 °C 1013.3 hPa WNW 14.5 km/h 25.7 km/h 21% 0.0 mm CLR
13:39 26.5 °C 1.0 °C 1013.3 hPa North 13.7 km/h 22.2 km/h 19% 0.0 mm CLR
13:45 26.7 °C 0.4 °C 1013.3 hPa West 13.7 km/h 25.9 km/h 18% 0.0 mm CLR
13:49 26.7 °C 1.2 °C 1013.1 hPa SW 13.0 km/h 19.8 km/h 19% 0.0 mm CLR
13:55 26.7 °C 1.1 °C 1013.1 hPa WSW 12.9 km/h 25.7 km/h 19% 0.0 mm CLR
13:59 26.8 °C 1.2 °C 1013.1 hPa West 13.0 km/h 18.5 km/h 19% 0.0 mm CLR
14:05 26.9 °C 1.3 °C 1012.7 hPa West 12.9 km/h 30.6 km/h 19% 0.0 mm CLR
14:09 26.9 °C 1.3 °C 1012.7 hPa WNW 13.0 km/h 33.3 km/h 19% 0.0 mm CLR
14:15 26.8 °C -0.3 °C 1012.7 hPa WNW 12.9 km/h 27.4 km/h 17% 0.0 mm CLR
14:19 26.9 °C -0.2 °C 1012.5 hPa NW 16.1 km/h 20.4 km/h 17% 0.0 mm CLR
14:25 27.1 °C -0.1 °C 1012.5 hPa WNW 16.1 km/h 25.7 km/h 17% 0.0 mm CLR
14:29 27.1 °C -0.1 °C 1012.5 hPa WNW 13.0 km/h 24.1 km/h 17% 0.0 mm CLR
14:35 27.1 °C -0.1 °C 1012.2 hPa WNW 13.0 km/h 25.9 km/h 17% 0.0 mm CLR
14:39 27.1 °C -1.8 °C 1012.2 hPa WNW 17.2 km/h 26.2 km/h 15% 0.0 mm CLR
14:45 27.0 °C -1.0 °C 1012.2 hPa WNW 16.1 km/h 29.0 km/h 16% 0.0 mm CLR
14:50 27.2 °C 0.0 °C 1011.9 hPa WNW 16.1 km/h 33.8 km/h 17% 0.0 mm CLR
14:55 27.3 °C 0.1 °C 1011.9 hPa WNW 16.1 km/h 27.4 km/h 17% 0.0 mm CLR
15:00 27.3 °C 0.1 °C 1011.9 hPa WNW 14.5 km/h 29.0 km/h 17% 0.0 mm CLR
15:05 27.3 °C 0.1 °C 1011.9 hPa NW 14.5 km/h 30.6 km/h 17% 0.0 mm CLR
15:09 27.3 °C 0.1 °C 1011.9 hPa WNW 16.4 km/h 24.1 km/h 17% 0.0 mm CLR
15:15 27.2 °C -0.8 °C 1011.9 hPa WNW 16.1 km/h 30.6 km/h 16% 0.0 mm CLR
15:20 27.4 °C -0.7 °C 1011.6 hPa WNW 19.3 km/h 33.8 km/h 16% 0.0 mm CLR
15:25 27.3 °C -0.7 °C 1011.6 hPa WNW 19.3 km/h 33.8 km/h 16% 0.0 mm CLR
15:29 27.2 °C -0.8 °C 1011.6 hPa NNW 19.8 km/h 25.6 km/h 16% 0.0 mm CLR
15:35 27.3 °C -0.7 °C 1011.4 hPa NW 20.9 km/h 35.4 km/h 16% 0.0 mm CLR
15:39 27.3 °C 0.1 °C 1011.4 hPa WNW 18.0 km/h 35.2 km/h 17% 0.0 mm CLR
15:45 27.3 °C 0.1 °C 1011.4 hPa NW 18.0 km/h 25.9 km/h 17% 0.0 mm CLR
15:49 27.3 °C -1.6 °C 1011.5 hPa WNW 19.0 km/h 31.5 km/h 15% 0.0 mm CLR
15:55 27.3 °C 0.1 °C 1011.5 hPa WNW 19.3 km/h 27.4 km/h 17% 0.0 mm CLR
16:00 27.4 °C 0.9 °C 1011.5 hPa WNW 16.1 km/h 27.4 km/h 18% 0.0 mm CLR
16:05 27.3 °C 0.9 °C 1011.4 hPa WNW 16.1 km/h 27.4 km/h 18% 0.0 mm CLR
16:09 27.3 °C 0.1 °C 1011.4 hPa WNW 16.1 km/h 31.5 km/h 17% 0.0 mm CLR
16:15 27.4 °C 0.2 °C 1011.4 hPa WNW 16.1 km/h 33.3 km/h 17% 0.0 mm CLR
16:20 27.3 °C 0.9 °C 1011.3 hPa WNW 19.3 km/h 29.0 km/h 18% 0.0 mm CLR
16:25 27.3 °C 0.9 °C 1011.3 hPa WNW 19.3 km/h 33.8 km/h 18% 0.0 mm CLR
16:30 27.2 °C 0.8 °C 1011.3 hPa WNW 20.9 km/h 30.6 km/h 18% 0.0 mm CLR
16:35 27.2 °C 0.8 °C 1011.1 hPa WNW 20.9 km/h 35.4 km/h 18% 0.0 mm CLR
16:40 27.3 °C 0.9 °C 1011.1 hPa WNW 20.9 km/h 30.6 km/h 18% 0.0 mm CLR
16:45 27.4 °C 0.9 °C 1011.1 hPa WNW 20.9 km/h 32.2 km/h 18% 0.0 mm CLR
16:49 27.4 °C 0.9 °C 1011.0 hPa WNW 14.0 km/h 27.8 km/h 18% 0.0 mm CLR
16:55 27.4 °C 1.7 °C 1011.0 hPa NW 14.5 km/h 25.7 km/h 19% 0.0 mm CLR
17:00 27.3 °C 0.9 °C 1011.0 hPa WNW 14.5 km/h 33.8 km/h 18% 0.0 mm CLR
17:04 27.2 °C 0.8 °C 1010.9 hPa NW 15.6 km/h 25.9 km/h 18% 0.0 mm CLR
17:09 27.1 °C 1.5 °C 1010.9 hPa WNW 19.0 km/h 27.8 km/h 19% 0.0 mm CLR
17:15 27.1 °C 1.5 °C 1010.9 hPa WNW 19.3 km/h 33.8 km/h 19% 0.0 mm CLR
17:19 27.1 °C 1.5 °C 1011.1 hPa WNW 17.2 km/h 28.2 km/h 19% 0.0 mm CLR
17:25 27.1 °C 1.4 °C 1011.1 hPa NW 16.1 km/h 29.0 km/h 19% 0.0 mm CLR
17:29 27.1 °C 1.5 °C 1011.1 hPa West 15.6 km/h 24.1 km/h 19% 0.0 mm CLR
17:35 27.1 °C 1.5 °C 1011.1 hPa West 15.6 km/h 25.9 km/h 19% 0.0 mm CLR
17:40 27.1 °C 2.2 °C 1011.1 hPa West 16.1 km/h 33.8 km/h 20% 0.0 mm CLR
17:45 27.1 °C 2.2 °C 1011.1 hPa West 16.1 km/h 24.1 km/h 20% 0.0 mm CLR
17:50 26.9 °C 2.1 °C 1011.1 hPa West 16.1 km/h 32.2 km/h 20% 0.0 mm CLR
17:55 26.9 °C 1.3 °C 1011.1 hPa West 16.1 km/h 30.6 km/h 19% 0.0 mm CLR
17:59 26.9 °C 2.1 °C 1011.1 hPa West 14.0 km/h 22.2 km/h 20% 0.0 mm CLR
18:05 26.8 °C 1.9 °C 1011.3 hPa West 14.5 km/h 33.8 km/h 20% 0.0 mm CLR
18:10 26.8 °C 1.9 °C 1011.3 hPa West 14.5 km/h 22.5 km/h 20% 0.0 mm CLR
18:15 26.8 °C 1.9 °C 1011.3 hPa West 14.5 km/h 24.1 km/h 20% 0.0 mm CLR
18:19 26.7 °C 1.2 °C 1011.4 hPa WSW 14.0 km/h 13.7 km/h 19% 0.0 mm CLR
18:25 26.6 °C 1.1 °C 1011.4 hPa West 14.5 km/h 27.4 km/h 19% 0.0 mm CLR
18:30 26.6 °C 1.0 °C 1011.4 hPa West 14.5 km/h 22.5 km/h 19% 0.0 mm CLR
18:35 26.4 °C 0.9 °C 1011.5 hPa West 14.5 km/h 24.1 km/h 19% 0.0 mm CLR
18:40 26.3 °C 0.8 °C 1011.5 hPa West 14.5 km/h 25.7 km/h 19% 0.0 mm CLR
18:45 26.3 °C 0.8 °C 1011.5 hPa West 14.5 km/h 22.5 km/h 19% 0.0 mm CLR
18:50 26.1 °C 0.7 °C 1011.6 hPa West 12.9 km/h 20.9 km/h 19% 0.0 mm CLR
18:55 26.0 °C 0.6 °C 1011.6 hPa West 12.2 km/h 16.7 km/h 19% 0.0 mm CLR
19:00 25.9 °C -0.3 °C 1011.6 hPa West 11.3 km/h 19.3 km/h 18% 0.0 mm CLR
19:05 25.8 °C -0.3 °C 1011.7 hPa WSW 11.3 km/h 19.3 km/h 18% 0.0 mm CLR
19:10 25.8 °C 0.4 °C 1011.7 hPa WSW 11.3 km/h 19.3 km/h 19% 0.0 mm CLR
19:14 25.6 °C 0.2 °C 1011.7 hPa WSW 11.1 km/h 13.0 km/h 19% 0.0 mm CLR
19:20 25.5 °C 0.2 °C 1011.7 hPa WSW 9.7 km/h 14.5 km/h 19% 0.0 mm CLR
19:25 25.3 °C 0.0 °C 1011.7 hPa WSW 9.5 km/h 11.1 km/h 19% 0.0 mm CLR
19:30 25.2 °C -0.1 °C 1011.7 hPa WSW 8.0 km/h 12.9 km/h 19% 0.0 mm CLR
19:35 25.1 °C -0.2 °C 1011.8 hPa WSW 8.0 km/h 16.1 km/h 19% 0.0 mm CLR
19:39 24.9 °C -0.3 °C 1011.8 hPa WSW 8.7 km/h 11.1 km/h 19% 0.0 mm CLR
19:45 24.8 °C -0.4 °C 1011.8 hPa SW 8.7 km/h 13.0 km/h 19% 0.0 mm CLR
19:49 24.7 °C 0.2 °C 1011.9 hPa WSW 7.6 km/h 11.1 km/h 20% 0.0 mm CLR
19:55 24.6 °C 0.1 °C 1011.9 hPa WSW 8.0 km/h 14.5 km/h 20% 0.0 mm CLR
19:59 24.4 °C -0.1 °C 1011.9 hPa WSW 7.6 km/h 13.0 km/h 20% 0.0 mm CLR
20:05 24.2 °C -0.2 °C 1012.1 hPa West 7.6 km/h 13.0 km/h 20% 0.0 mm CLR
20:10 24.1 °C -0.3 °C 1012.1 hPa WSW 6.9 km/h 7.4 km/h 20% 0.0 mm CLR
20:15 23.9 °C 0.2 °C 1012.1 hPa SW 6.9 km/h 7.4 km/h 21% 0.0 mm CLR
20:19 23.8 °C 0.2 °C 1012.2 hPa WSW 5.0 km/h 9.3 km/h 21% 0.0 mm CLR
20:24 23.6 °C 0.0 °C 1012.2 hPa WSW 5.0 km/h 5.6 km/h 21% 0.0 mm CLR
20:29 23.4 °C -0.2 °C 1012.2 hPa WSW 3.2 km/h 3.7 km/h 21% 0.0 mm CLR
20:34 23.3 °C -0.3 °C 1012.5 hPa WSW 3.2 km/h 3.9 km/h 21% 0.0 mm CLR
20:39 23.2 °C -0.3 °C 1012.5 hPa WSW 2.9 km/h 5.6 km/h 21% 0.0 mm CLR
20:45 23.1 °C -0.4 °C 1012.5 hPa WSW 3.2 km/h 9.7 km/h 21% 0.0 mm CLR
20:50 23.0 °C -0.5 °C 1012.7 hPa SW 5.8 km/h 9.3 km/h 21% 0.0 mm CLR
20:54 22.8 °C -0.7 °C 1012.7 hPa SW 5.8 km/h 7.4 km/h 21% 0.0 mm CLR
21:00 22.8 °C -0.1 °C 1012.7 hPa SW 4.8 km/h 8.0 km/h 22% 0.0 mm CLR
21:04 22.7 °C 0.5 °C 1012.9 hPa SW 5.8 km/h 4.7 km/h 23% 0.0 mm CLR
21:09 22.3 °C 0.2 °C 1012.9 hPa SSW 3.2 km/h 7.4 km/h 23% 0.0 mm CLR
21:14 22.0 °C -0.1 °C 1012.9 hPa WSW 3.2 km/h 9.3 km/h 23% 0.0 mm CLR
21:20 21.9 °C -0.2 °C 1013.0 hPa WSW 5.8 km/h 5.6 km/h 23% 0.0 mm CLR
21:25 21.8 °C 0.3 °C 1013.0 hPa SSE 5.8 km/h 7.4 km/h 24% 0.0 mm CLR
21:30 21.6 °C 0.7 °C 1013.0 hPa South 3.2 km/h 8.0 km/h 25% 0.0 mm CLR
21:35 21.1 °C 0.8 °C 1013.3 hPa SE 3.2 km/h 9.7 km/h 26% 0.0 mm CLR
21:39 20.7 °C 1.0 °C 1013.3 hPa SSW 5.8 km/h 9.3 km/h 27% 0.0 mm CLR
21:44 20.6 °C 0.9 °C 1013.3 hPa South 5.8 km/h 4.7 km/h 27% 0.0 mm CLR
21:49 20.4 °C 1.3 °C 1013.4 hPa South 3.9 km/h 7.6 km/h 28% 0.0 mm CLR
21:54 20.4 °C 1.3 °C 1013.4 hPa South 3.9 km/h 9.3 km/h 28% 0.0 mm CLR
21:59 20.3 °C 1.2 °C 1013.4 hPa South 6.4 km/h 11.1 km/h 28% 0.0 mm CLR
22:05 20.3 °C 1.2 °C 1013.8 hPa South 8.0 km/h 14.5 km/h 28% 0.0 mm CLR
22:09 20.3 °C 1.2 °C 1013.8 hPa South 9.5 km/h 13.0 km/h 28% 0.0 mm CLR
22:14 20.3 °C 1.2 °C 1013.8 hPa South 9.5 km/h 13.0 km/h 28% 0.0 mm CLR
22:19 20.3 °C 1.2 °C 1014.0 hPa WSW 8.7 km/h 7.4 km/h 28% 0.0 mm CLR
22:25 20.3 °C 0.7 °C 1014.0 hPa SW 9.7 km/h 11.3 km/h 27% 0.0 mm CLR
22:30 20.4 °C 0.8 °C 1014.0 hPa SW 6.9 km/h 9.3 km/h 27% 0.0 mm CLR
22:34 20.5 °C -0.2 °C 1014.1 hPa WSW 6.9 km/h 10.0 km/h 25% 0.0 mm CLR
22:39 20.6 °C -0.1 °C 1014.1 hPa WSW 6.9 km/h 9.3 km/h 25% 0.0 mm CLR
22:45 20.6 °C -0.1 °C 1014.1 hPa WSW 8.0 km/h 12.9 km/h 25% 0.0 mm CLR
22:50 20.7 °C -0.6 °C 1014.3 hPa WSW 4.8 km/h 9.7 km/h 24% 0.0 mm CLR
22:55 20.7 °C -0.6 °C 1014.3 hPa WSW 4.8 km/h 16.1 km/h 24% 0.0 mm CLR
23:00 20.7 °C -0.6 °C 1014.3 hPa West 8.0 km/h 12.9 km/h 24% 0.0 mm CLR
23:05 20.6 °C -0.7 °C 1014.5 hPa West 8.0 km/h 9.7 km/h 24% 0.0 mm CLR
23:10 20.5 °C -0.8 °C 1014.5 hPa WNW 5.0 km/h 5.6 km/h 24% 0.0 mm CLR
23:15 20.4 °C 0.2 °C 1014.5 hPa West 4.8 km/h 9.7 km/h 26% 0.0 mm CLR
23:19 19.9 °C 0.3 °C 1014.7 hPa SSW 5.0 km/h 11.1 km/h 27% 0.0 mm CLR
23:25 19.7 °C 0.2 °C 1014.7 hPa SSW 5.0 km/h 13.0 km/h 27% 0.0 mm CLR
23:30 19.8 °C -0.3 °C 1014.7 hPa SW 8.4 km/h 13.0 km/h 26% 0.0 mm CLR
23:35 20.0 °C -0.1 °C 1014.9 hPa West 8.4 km/h 7.4 km/h 26% 0.0 mm CLR
23:40 20.1 °C -0.6 °C 1014.9 hPa WSW 6.9 km/h 7.4 km/h 25% 0.0 mm CLR
23:45 20.0 °C -0.1 °C 1014.9 hPa WNW 8.0 km/h 16.1 km/h 26% 0.0 mm CLR
23:50 19.8 °C -0.3 °C 1015.4 hPa North 6.9 km/h 9.3 km/h 26% 0.0 mm CLR
23:55 19.8 °C -0.3 °C 1015.4 hPa North 6.9 km/h 11.1 km/h 26% 0.0 mm CLR
23:59 19.8 °C 0.2 °C 1015.4 hPa North 6.9 km/h 13.0 km/h 27% 0.0 mm CLR
Murcia-Puente Tocinos, España
Compliments of Weather Underground - 2.75 mb

La estación de MeteoMurcia.com, publica sus datos en los siguientes proyectos:

Weather Underground PWS IMURCIAP2 Meteoclimatic www.awekas.at

W3Counter
Web Analytics